Terminal Aerodrome Forecast
Issued by NWS Wichita, KS

Home | Current Version | Previous Version | Graphics & Text | Print | Product List | Glossary On
Versions: 1 2 3 4 5 6 7 8 9 10 11 12 13 14 15 16 17 18 19 20 21
005
FTUS43 KICT 211140
TAFICT
TAF
KICT 211140Z 2112/2212 05017KT P6SM OVC300
     FM211500 05022G26KT P6SM SCT040 OVC250
     FM220000 05017G22KT P6SM OVC040=

USA.gov is the U.S. government's official web portal to all federal, state and local government web resources and services.